Latest Weather Observations for Mawson*

IDT60801

Issued at 6:01 pm EST Thursday 28 May 2015 (issued every 30 minutes, with the page automatically refreshed every 10 minutes)

About weather observations | Map of weather stations | Latest weather observations for ANT | Other Formats
Station Details ID: 300001 Name: MAWSON Lat: -67.60 Lon: 62.88 Height: 9.9 m
Data from the previous 72 hours. | See also: Recent months at Mawson*
Date/Time
EST
Temp
°C
App
Temp
°C
Dew
Point
Rel
Hum
%
Delta-T
°C
Wind Press
QNH
hPa
Press
MSL
hPa
Rain
since 9 am
mm
Dir
 
Spd
km/h
Gust
km/h
Spd
kts
Gust
kts
28/06:00pm -11.7 -33.0 -13.1 89 - SE 95 109 51 59 985.6 - -
28/05:30pm -12.4 -33.0 -14.0 88 - SE 91 102 49 55 986.4 - -
28/05:00pm -12.6 -31.7 -14.4 86 - SE 83 95 45 51 987.8 - -
28/04:30pm -12.2 -32.0 -14.0 86 - SE 87 98 47 53 988.0 - -
28/04:00pm -12.3 -31.2 -14.3 85 - SE 82 93 44 50 989.1 989.3 -
28/03:30pm -12.9 -31.8 -14.7 86 - SE 82 95 44 51 989.4 - -
28/03:12pm -13.2 -31.8 -15.2 85 - SE 80 89 43 48 990.1 - -
28/03:08pm -13.1 -28.1 -15.1 85 - SE 61 80 33 43 990.7 - -
28/03:04pm -13.5 -27.2 -15.9 82 - SE 54 67 29 36 991.8 - -
28/03:00pm -13.1 -21.1 -16.4 76 - SE 24 43 13 23 992.9 - -
28/02:30pm -13.7 -19.4 -19.8 60 - WNW 11 20 6 11 993.7 - -
28/02:05pm -12.6 -21.4 -18.0 64 - ENE 28 46 15 25 994.0 - -
28/02:00pm -15.4 -22.8 -20.6 64 - ENE 20 30 11 16 994.5 - -
28/01:30pm -17.4 -23.9 -22.2 66 - W 15 20 8 11 995.2 - -
28/01:00pm -18.6 -25.5 -23.2 67 - SW 17 20 9 11 995.9 996.1 -
28/12:30pm -18.4 -23.8 -23.0 67 - WSW 9 13 5 7 996.6 - -
28/12:00pm -18.3 -24.1 -23.2 65 - SW 11 13 6 7 997.0 - -
28/11:30am -19.4 -23.1 -23.1 72 - CALM 0 0 0 0 997.4 - -
28/11:00am -19.3 -24.3 -23.4 70 - SSW 7 9 4 5 997.8 - -
28/10:30am -20.2 -26.4 -23.2 77 - SW 13 17 7 9 998.3 - -
28/10:00am -20.3 -26.1 -23.3 77 - WSW 11 15 6 8 998.7 998.9 -
28/09:30am -20.3 -25.7 -23.6 75 - SW 9 13 5 7 998.9 - -
28/09:00am -20.4 -25.4 -23.5 76 - WSW 7 11 4 6 999.1 - -
28/08:30am -20.6 -26.4 -23.8 75 - WSW 11 13 6 7 999.5 - -
28/08:00am -20.6 -27.9 -23.8 75 - SW 19 22 10 12 999.5 - -
28/07:30am -20.7 -27.3 -23.8 76 - SW 15 19 8 10 1000.1 - -
28/07:00am -20.8 -25.8 -23.9 76 - ENE 7 9 4 5 1000.5 1000.7 -
28/06:30am -20.8 -25.6 -23.9 76 - ENE 6 9 3 5 1000.2 - -
28/06:00am -21.0 -25.1 -23.9 77 - ENE 2 6 1 3 1000.5 - -
28/05:30am -21.0 -25.8 -23.9 77 - ENE 6 9 3 5 1000.7 - -
28/05:00am -21.1 -26.5 -24.0 77 - ENE 9 11 5 6 1000.7 - -
28/04:30am -21.1 -26.1 -24.2 76 - ENE 7 11 4 6 1000.8 - -
28/04:00am -21.3 -25.4 -24.4 76 - ENE 2 7 1 4 1000.8 1001.0 -
28/03:30am -21.3 -26.7 -24.4 76 - ENE 9 11 5 6 1000.9 - -
28/03:00am -21.2 -27.4 -24.4 75 - NE 13 15 7 8 1000.9 - -
28/02:30am -21.3 -27.5 -24.4 76 - ENE 13 17 7 9 1001.1 - -
28/02:00am -21.3 -28.6 -24.4 76 - NE 19 22 10 12 1000.8 - -
28/01:30am -21.3 -28.2 -24.4 76 - ENE 17 20 9 11 1000.9 - -
28/01:00am -21.3 -27.9 -24.5 75 - ENE 15 20 8 11 1000.7 1000.9 -
28/12:30am -21.2 -27.4 -24.3 76 - NNE 13 19 7 10 1000.6 - -
28/12:00am -21.2 -26.6 -24.1 77 - S 9 13 5 7 1000.3 - -
 
Date/Time
EST
Temp
°C
App
Temp
°C
Dew
Point
Rel
Hum
%
Delta-T
°C
Wind Press
QNH
hPa
Press
MSL
hPa
Rain
since 9 am
mm
Dir
 
Spd
km/h
Gust
km/h
Spd
kts
Gust
kts
27/11:30pm -21.1 -25.9 -23.9 78 - S 6 6 3 3 1000.7 - -
27/11:00pm -21.1 -26.5 -24.0 77 - S 9 11 5 6 1000.6 - -
27/10:30pm -21.1 -26.5 -24.0 77 - S 9 11 5 6 1000.4 - -
27/10:00pm -20.8 -25.6 -23.7 77 - S 6 11 3 6 1000.3 1000.5 -
27/09:30pm -20.9 -26.3 -24.0 76 - S 9 11 5 6 1000.1 - -
27/09:00pm -20.6 -26.8 -24.1 73 - NE 13 19 7 10 999.9 - -
27/08:30pm -20.7 -26.5 -24.4 72 - ENE 11 17 6 9 999.8 - -
27/08:00pm -20.8 -25.8 -24.0 75 - SSW 7 9 4 5 999.4 - -
27/07:30pm -20.9 -26.7 -24.1 75 - SSW 11 13 6 7 999.5 - -
27/07:00pm -20.5 -25.9 -23.9 74 - ESE 9 13 5 7 999.3 999.5 -
27/06:30pm -20.8 -26.6 -23.7 77 - E 11 13 6 7 999.2 - -
27/06:00pm -20.7 -27.6 -23.7 77 - ENE 17 20 9 11 999.2 - -
27/05:30pm -20.6 -27.9 -24.0 74 - ENE 19 24 10 13 998.8 - -
27/05:00pm -20.7 -27.3 -24.4 72 - E 15 20 8 11 998.8 - -
27/04:30pm -21.0 -27.6 -24.4 74 - ENE 15 20 8 11 998.5 - -
27/04:00pm -21.1 -27.3 -24.6 73 - ENE 13 15 7 8 998.4 998.6 -
27/03:30pm -21.3 -27.1 -24.8 73 - E 11 17 6 9 998.4 - -
27/03:00pm -21.0 -28.0 -24.5 73 - E 17 22 9 12 998.1 - -
27/02:30pm -21.2 -28.7 -24.3 76 - ENE 20 24 11 13 997.5 - -
27/02:00pm -21.0 -29.6 -23.9 77 - NE 26 30 14 16 997.2 - -
27/01:30pm -20.8 -28.1 -23.6 78 - NE 19 22 10 12 997.1 - -
27/01:00pm -20.6 -28.5 -23.4 78 - NE 22 26 12 14 996.7 996.9 -
27/12:30pm -20.5 -28.7 -23.0 80 - NE 24 30 13 16 996.8 - -
27/12:00pm -20.4 -28.6 -22.9 80 - NE 24 32 13 17 996.6 - -
27/11:30am -20.3 -29.3 -23.0 79 - NE 28 33 15 18 996.3 - -
27/11:00am -20.2 -28.8 -22.7 80 - NE 26 32 14 17 996.0 - -
27/10:30am -20.1 -27.9 -22.6 80 - NE 22 28 12 15 996.2 - -
27/10:00am -20.1 -27.9 -22.6 80 - NNE 22 28 12 15 996.1 996.3 -
27/09:30am -19.9 -27.7 -22.4 80 - NNE 22 28 12 15 995.9 - -
27/09:00am -19.8 -26.3 -22.3 80 - NE 15 19 8 10 995.8 - -
27/08:30am -19.7 -27.2 -22.2 80 - NNE 20 28 11 15 995.6 - -
27/08:00am -19.6 -25.7 -22.2 80 - NNE 13 17 7 9 995.5 - -
27/07:30am -19.4 -26.7 -22.1 79 - NNE 19 24 10 13 995.4 - -
27/07:00am -19.4 -27.6 -22.1 79 - N 24 28 13 15 995.1 995.3 -
27/06:30am -16.2 -23.4 -18.8 80 - ENE 19 28 10 15 994.7 - -
27/06:00am -15.9 -24.0 -19.3 75 - E 24 35 13 19 994.2 - -
27/05:30am -15.9 -23.2 -17.7 86 - E 20 26 11 14 994.0 - -
27/05:00am -15.6 -22.7 -18.4 79 - E 19 26 10 14 993.8 - -
27/04:30am -15.5 -24.0 -18.4 78 - E 26 37 14 20 993.5 - -
27/04:00am -15.5 -24.0 -18.1 80 - E 26 39 14 21 992.8 993.0 -
27/03:30am -15.5 -25.1 -17.9 82 - E 32 44 17 24 992.8 - -
27/03:00am -15.7 -23.8 -18.2 81 - ENE 24 33 13 18 992.7 - -
27/02:30am -17.8 -26.7 -19.8 84 - NE 28 35 15 19 992.6 - -
27/02:00am -19.3 -30.7 -21.9 80 - NNE 41 46 22 25 992.5 - -
27/01:30am -19.4 -29.7 -21.8 81 - NE 35 43 19 23 992.4 - -
27/01:00am -19.2 -28.9 -21.5 82 - NNE 32 39 17 21 992.0 992.2 -
27/12:30am -18.6 -28.3 -20.9 82 - NNE 32 39 17 21 991.2 - -
27/12:00am -15.6 -25.2 -19.0 75 - ENE 32 43 17 23 990.7 - -
 
Date/Time
EST
Temp
°C
App
Temp
°C
Dew
Point
Rel
Hum
%
Delta-T
°C
Wind Press
QNH
hPa
Press
MSL
hPa
Rain
since 9 am
mm
Dir
 
Spd
km/h
Gust
km/h
Spd
kts
Gust
kts
26/11:30pm -15.8 -25.6 -18.7 78 - ENE 33 43 18 23 989.9 - -
26/11:00pm -16.1 -25.9 -18.7 80 - E 33 48 18 26 989.3 - -
26/10:58pm -16.1 -25.9 -18.9 79 - E 33 48 18 26 989.3 - -
26/10:42pm -15.7 -27.4 -18.2 81 - NE 43 46 23 25 989.1 - -
26/10:30pm -16.7 -29.7 -18.9 83 - NNE 50 56 27 30 988.9 - -
26/10:09pm -13.3 -22.8 -16.0 80 - NNE 32 50 17 27 988.7 - -
26/10:00pm -11.9 -18.5 -14.5 81 - ENE 17 30 9 16 988.4 988.6 -
26/09:48pm -11.9 -19.8 -14.6 80 - E 24 30 13 16 988.3 - -
26/09:30pm -12.0 -22.7 -14.4 82 - ESE 39 57 21 31 987.7 - -
26/09:24pm -12.2 -22.9 -14.3 84 - ESE 39 57 21 31 987.4 - -
26/09:23pm -12.2 -22.6 -14.2 85 - ESE 37 52 20 28 987.3 - -
26/09:10pm -12.5 -27.4 -14.5 85 - ESE 61 80 33 43 986.8 - -
26/09:00pm -12.2 -28.3 -14.3 84 - SE 67 80 36 43 986.6 - -
26/08:30pm -12.5 -29.5 -14.5 85 - SE 72 87 39 47 986.7 - -
26/08:17pm -12.3 -30.1 -14.4 84 - SE 76 96 41 52 986.6 - -
26/08:00pm -12.4 -30.2 -14.5 84 - SE 76 91 41 49 986.5 - -
26/07:30pm -12.3 -29.3 -14.6 83 - SE 72 91 39 49 986.8 - -
26/07:21pm -12.3 -29.3 -14.4 84 - SE 72 91 39 49 986.6 - -
26/07:00pm -12.0 -29.0 -14.6 81 - SE 72 87 39 47 986.9 987.1 -
26/06:55pm -12.3 -28.8 -14.7 82 - SE 69 87 37 47 987.0 - -
26/06:30pm -12.5 -29.0 -15.1 81 - SE 69 80 37 43 987.0 - -
26/06:00pm -12.2 -29.2 -14.8 81 - SE 72 85 39 46 986.8 - -
26/05:30pm -12.8 -29.5 -15.4 81 - SE 70 83 38 45 987.1 - -
26/05:00pm -13.1 -29.8 -15.5 82 - SE 70 85 38 46 987.1 - -
26/04:30pm -13.2 -28.9 -15.3 84 - SE 65 80 35 43 987.5 - -
26/04:26pm -13.4 -28.0 -15.7 83 - SE 59 80 32 43 987.7 - -
26/04:24pm -13.3 -27.3 -15.6 83 - SE 56 70 30 38 988.0 - -
26/04:12pm -13.8 -22.9 -15.1 90 - SE 30 63 16 34 989.0 - -
26/04:00pm -17.8 -25.0 -21.0 76 - S 19 37 10 20 989.4 989.6 -
26/03:55pm -15.2 -23.6 -16.7 88 - WSW 26 37 14 20 989.3 - -
26/03:30pm -20.9 -28.8 -23.4 80 - SW 22 26 12 14 990.2 - -
26/03:09pm -22.0 -28.6 -26.1 69 - SE 15 26 8 14 990.3 - -
26/03:06pm -16.2 -24.3 -18.0 86 - W 24 41 13 22 990.1 - -
26/03:00pm -22.5 -32.3 -26.1 72 - WNW 32 41 17 22 990.6 - -
26/02:55pm -18.2 -26.4 -20.5 82 - W 24 33 13 18 990.5 - -
26/02:30pm -24.0 -32.3 -27.6 72 - WSW 24 35 13 19 990.8 - -
26/02:20pm -20.4 -29.4 -23.1 79 - SSW 28 44 15 24 991.1 - -
26/02:00pm -24.8 -32.4 -28.5 71 - W 20 26 11 14 991.7 - -
26/01:30pm -25.1 -32.5 -29.4 67 - W 19 22 10 12 992.1 - -
26/01:00pm -25.6 -31.9 -30.4 64 - WSW 13 15 7 8 993.2 993.4 -
26/12:30pm -26.1 -32.8 -30.8 65 - SW 15 19 8 10 993.8 - -
26/12:00pm -26.3 -33.0 -31.5 62 - WSW 15 19 8 10 994.1 - -
26/11:30am -26.9 -31.9 -32.6 58 - WSW 6 6 3 3 994.2 - -
26/11:00am -27.3 -32.5 -32.7 60 - WSW 7 9 4 5 994.4 - -
26/10:30am -27.1 -32.1 -32.8 58 - WSW 6 11 3 6 994.5 - -
26/10:00am -27.5 -32.7 -33.0 59 - SW 7 13 4 7 995.0 995.2 -
26/09:30am -27.7 -34.1 -33.6 57 - SW 13 20 7 11 996.0 - -
26/09:00am -29.3 -34.5 -35.1 57 - SW 7 11 4 6 996.4 - -
26/08:30am -31.1 -36.3 -36.3 60 - WSW 7 11 4 6 996.6 - -
26/08:00am -30.4 -36.0 -35.9 59 - WSW 9 13 5 7 996.7 - -
26/07:30am -29.9 -36.7 -36.0 55 - WSW 15 17 8 9 997.0 - -
26/07:00am -30.3 -34.6 -35.7 59 - ENE 2 7 1 4 997.6 997.8 -
26/06:30am -30.5 -35.6 -36.6 55 - ENE 6 9 3 5 997.4 - -
26/06:00am -31.8 -37.8 -37.1 59 - ENE 11 15 6 8 997.2 - -
26/05:30am -31.4 -36.5 -37.1 57 - ESE 6 9 3 5 997.0 - -
26/05:00am -30.3 -35.0 -36.9 53 - S 4 6 2 3 997.4 - -
26/04:30am -31.0 -36.1 -37.0 56 - S 6 9 3 5 997.7 - -
26/04:00am -30.2 -34.5 -37.6 49 - SSW 2 7 1 4 997.6 997.8 -
26/03:30am -30.3 -34.6 -37.1 52 - S 2 7 1 4 997.7 - -
26/03:00am -31.0 -36.2 -37.2 54 - S 7 9 4 5 997.5 - -
26/02:30am -32.9 -38.5 -38.0 60 - SSW 9 11 5 6 997.1 - -
26/02:00am -32.8 -38.8 -37.4 63 - SSW 11 13 6 7 996.4 - -
26/01:30am -32.6 -38.6 -37.5 62 - SSW 11 17 6 9 996.3 - -
26/01:00am -32.5 -37.6 -37.1 64 - SSW 6 7 3 4 996.2 996.4 -
26/12:30am -32.7 -37.0 -37.5 62 - SSW 2 7 1 4 996.2 - -
26/12:00am -32.6 -36.5 -38.0 59 - CALM 0 0 0 0 996.4 - -
 
Date/Time
EST
Temp
°C
App
Temp
°C
Dew
Point
Rel
Hum
%
Delta-T
°C
Wind Press
QNH
hPa
Press
MSL
hPa
Rain
since 9 am
mm
Dir
 
Spd
km/h
Gust
km/h
Spd
kts
Gust
kts
25/11:30pm -32.8 -36.7 -38.4 57 - CALM 0 6 0 3 996.2 - -
25/11:00pm -33.0 -37.7 -38.7 57 - SSW 4 7 2 4 996.2 - -
25/10:30pm -33.1 -37.4 -38.7 57 - SSW 2 7 1 4 995.8 - -

Other Formats:

Comma delimited format used in spreadsheet applications
http://www.bom.gov.au/fwo/IDT60803/IDT60803.89564.axf

JavaScript Object Notation format (JSON) in row-major order
http://www.bom.gov.au/fwo/IDT60803/IDT60803.89564.json